createdAt,value
2022-12-11T00:01:25.325Z,-3670.69
2022-12-11T00:03:51.825Z,-3670.69
2022-12-11T00:06:21.756Z,-3926.56
2022-12-11T00:08:50.803Z,-4182.44
2022-12-11T00:11:17.255Z,-4182.44
2022-12-11T00:13:43.723Z,-4438.28
2022-12-11T00:16:10.643Z,-4694.09
2022-12-11T00:18:37.621Z,-4438.28
2022-12-11T00:21:06.198Z,-4438.28
2022-12-11T00:23:34.744Z,-4694.09
2022-12-11T00:26:01.175Z,-4694.09
2022-12-11T00:28:27.572Z,-4694.09
2022-12-11T00:30:54.038Z,-4694.09
2022-12-11T00:33:20.458Z,-4438.28
2022-12-11T00:35:47.892Z,-4182.44
2022-12-11T00:38:19.767Z,-4182.44
2022-12-11T00:40:46.591Z,-3926.56
2022-12-11T00:43:13.566Z,-3926.56
2022-12-11T00:45:45.935Z,-4182.44
2022-12-11T00:48:12.981Z,-4182.44
2022-12-11T00:50:40.600Z,-4182.44
2022-12-11T00:53:07.056Z,-4182.44
2022-12-11T00:55:38.045Z,-4182.44
2022-12-11T00:58:04.953Z,-4182.44
2022-12-11T01:00:31.403Z,-4182.44
2022-12-11T01:02:57.968Z,-4182.44
2022-12-11T01:05:24.420Z,-3926.56
2022-12-11T01:07:51.016Z,-4182.44
2022-12-11T01:10:26.657Z,-3926.56
2022-12-11T01:13:06.086Z,-4438.28
2022-12-11T01:15:41.335Z,-4438.28
2022-12-11T01:18:09.107Z,-4694.09
2022-12-11T01:20:38.852Z,-4949.91
2022-12-11T01:23:05.251Z,-4949.91
2022-12-11T01:25:33.116Z,-5461.50
2022-12-11T01:27:59.645Z,-5461.50
2022-12-11T01:30:26.799Z,-5717.25
2022-12-11T01:32:53.284Z,-5461.50
2022-12-11T01:35:20.157Z,-5717.25
2022-12-11T01:37:47.152Z,-5717.25
2022-12-11T01:40:15.610Z,-5717.25
2022-12-11T01:42:42.391Z,-5461.50
2022-12-11T01:45:32.369Z,-5461.50
2022-12-11T01:48:16.065Z,-5461.50
2022-12-11T01:50:48.939Z,-5205.72
2022-12-11T01:53:21.119Z,-5205.72
2022-12-11T01:55:49.536Z,-5205.72
2022-12-11T01:58:18.295Z,-5205.72
2022-12-11T02:00:44.740Z,-5205.72
2022-12-11T02:03:11.364Z,-4949.91
2022-12-11T02:05:38.331Z,-4949.91
2022-12-11T02:08:06.804Z,-4949.91
2022-12-11T02:11:01.408Z,-4949.91
2022-12-11T02:13:39.362Z,-4949.91
2022-12-11T02:16:19.342Z,-4949.91
2022-12-11T02:18:55.472Z,-4949.91
2022-12-11T02:21:37.934Z,-4949.91
2022-12-11T02:24:22.551Z,-4438.28
2022-12-11T02:27:01.862Z,-4694.09
2022-12-11T02:29:37.728Z,-4694.09
2022-12-11T02:32:06.745Z,-4694.09
2022-12-11T02:34:41.052Z,-4694.09
2022-12-11T02:37:15.095Z,-4694.09
2022-12-11T02:39:44.141Z,-4949.91
2022-12-11T02:42:13.832Z,-4949.91
2022-12-11T02:44:41.268Z,-5205.72
2022-12-11T02:47:13.921Z,-5461.50
2022-12-11T02:49:43.936Z,-5205.72
2022-12-11T02:52:14.455Z,-5205.72
2022-12-11T02:54:43.895Z,-5205.72
2022-12-11T02:57:16.640Z,-5205.72
2022-12-11T02:59:45.653Z,-5205.72
2022-12-11T03:02:16.624Z,-5205.72
2022-12-11T03:04:44.454Z,-5205.72
2022-12-11T03:07:16.059Z,-5205.72
2022-12-11T03:09:44.913Z,-5205.72
2022-12-11T03:12:17.228Z,-5461.50
2022-12-11T03:14:44.144Z,-5205.72
2022-12-11T03:17:14.294Z,-5205.72
2022-12-11T03:20:06.447Z,-4949.91
2022-12-11T03:22:39.130Z,-4694.09
2022-12-11T03:25:41.370Z,-4438.28
2022-12-11T03:28:16.013Z,-4438.28
2022-12-11T03:30:45.152Z,-4438.28
2022-12-11T03:33:30.857Z,-4438.28
2022-12-11T03:36:03.949Z,-4438.28
2022-12-11T03:39:07.165Z,-4182.44
2022-12-11T03:41:35.796Z,-4182.44
2022-12-11T03:44:02.268Z,-3670.69
2022-12-11T03:46:33.941Z,-3670.69
2022-12-11T03:49:07.910Z,-3414.81
2022-12-11T03:51:35.864Z,-3670.69
2022-12-11T03:54:02.601Z,-3670.69
2022-12-11T03:56:31.860Z,-3414.81
2022-12-11T03:58:58.457Z,-3414.81
2022-12-11T04:01:24.961Z,-3158.88
2022-12-11T04:03:51.681Z,-2902.97
2022-12-11T04:06:18.164Z,-2902.97
2022-12-11T04:08:44.671Z,-2647.00
2022-12-11T04:11:29.751Z,-2902.97
2022-12-11T04:14:14.664Z,-3414.81
2022-12-11T04:16:41.168Z,-3414.81
2022-12-11T04:19:28.395Z,-3670.69
2022-12-11T04:22:13.258Z,-3670.69
2022-12-11T04:24:39.658Z,-3670.69
2022-12-11T04:27:06.372Z,-3414.81
2022-12-11T04:29:32.779Z,-3158.88
2022-12-11T04:31:59.230Z,-3158.88
2022-12-11T04:34:25.662Z,-3158.88
2022-12-11T04:36:52.102Z,-2902.97
2022-12-11T04:39:18.552Z,-2647.00
2022-12-11T04:41:45.012Z,-2647.00
2022-12-11T04:44:11.470Z,-3158.88
2022-12-11T04:46:38.114Z,-3414.81
2022-12-11T04:49:04.565Z,-3414.81
2022-12-11T04:51:30.969Z,-3414.81
2022-12-11T04:53:59.079Z,-3670.69
2022-12-11T04:56:25.561Z,-3926.56
2022-12-11T04:58:51.978Z,-3926.56
2022-12-11T05:01:22.662Z,-3926.56
2022-12-11T05:03:49.328Z,-3926.56
2022-12-11T05:06:16.228Z,-3926.56
2022-12-11T05:08:43.401Z,-3670.69
2022-12-11T05:11:12.320Z,-3670.69
2022-12-11T05:13:38.949Z,-3926.56
2022-12-11T05:16:06.791Z,-3926.56
2022-12-11T05:18:33.590Z,-4182.44
2022-12-11T05:21:05.843Z,-4438.28
2022-12-11T05:23:33.284Z,-4694.09
2022-12-11T05:26:03.151Z,-4438.28
2022-12-11T05:28:31.465Z,-4182.44
2022-12-11T05:31:00.341Z,-3926.56
2022-12-11T05:33:27.099Z,-3926.56
2022-12-11T05:35:53.875Z,-3926.56
2022-12-11T05:38:20.831Z,-3926.56
2022-12-11T05:41:05.935Z,-3926.56
2022-12-11T05:43:35.863Z,-3926.56
2022-12-11T05:46:16.958Z,-3926.56
2022-12-11T05:48:46.020Z,-4182.44
2022-12-11T05:51:13.635Z,-4438.28
2022-12-11T05:53:40.621Z,-4438.28
2022-12-11T05:56:12.995Z,-4438.28
2022-12-11T05:58:40.101Z,-4438.28
2022-12-11T06:01:34.832Z,-4438.28
2022-12-11T06:04:02.142Z,-4438.28
2022-12-11T06:06:28.794Z,-4438.28
2022-12-11T06:08:57.191Z,-4694.09
2022-12-11T06:11:25.226Z,-4694.09
2022-12-11T06:13:53.211Z,-4438.28
2022-12-11T06:16:19.970Z,-4182.44
2022-12-11T06:18:46.711Z,-4182.44
2022-12-11T06:21:28.685Z,-4182.44
2022-12-11T06:23:57.137Z,-4182.44
2022-12-11T06:26:24.235Z,-3926.56
2022-12-11T06:28:51.292Z,-3670.69
2022-12-11T06:31:18.455Z,-3670.69
2022-12-11T06:33:45.405Z,-3670.69
2022-12-11T06:36:15.318Z,-3670.69
2022-12-11T06:38:42.388Z,-3670.69
2022-12-11T06:41:09.513Z,-3670.69
2022-12-11T06:43:38.426Z,-3670.69
2022-12-11T06:46:06.094Z,-3670.69
2022-12-11T06:48:32.908Z,-3670.69
2022-12-11T06:51:00.172Z,-3670.69
2022-12-11T06:53:26.540Z,-3414.81
2022-12-11T06:55:52.953Z,-3414.81
2022-12-11T06:58:19.436Z,-3414.81
2022-12-11T07:00:46.073Z,-3158.88
2022-12-11T07:03:13.744Z,-2902.97
2022-12-11T07:05:40.103Z,-2902.97
2022-12-11T07:08:07.477Z,-3158.88
2022-12-11T07:10:34.067Z,-3158.88
2022-12-11T07:13:00.481Z,-3414.81
2022-12-11T07:15:26.895Z,-3414.81
2022-12-11T07:17:53.352Z,-3414.81
2022-12-11T07:20:19.777Z,-3670.69
2022-12-11T07:22:46.773Z,-3158.88
2022-12-11T07:25:14.135Z,-3158.88
2022-12-11T07:27:41.640Z,-2902.97
2022-12-11T07:30:08.996Z,-3158.88
2022-12-11T07:32:35.441Z,-3158.88
2022-12-11T07:35:01.951Z,-3158.88
2022-12-11T07:37:28.428Z,-2902.97
2022-12-11T07:39:54.942Z,-2902.97
2022-12-11T07:42:21.491Z,-2902.97
2022-12-11T07:44:48.150Z,-2902.97
2022-12-11T07:47:14.712Z,-2902.97
2022-12-11T07:49:41.127Z,-3158.88
2022-12-11T07:52:07.597Z,-3158.88
2022-12-11T07:54:34.004Z,-2902.97
2022-12-11T07:57:00.369Z,-2902.97
2022-12-11T07:59:26.758Z,-2902.97
2022-12-11T08:01:53.215Z,-2647.00
2022-12-11T08:04:19.637Z,-2391.03
2022-12-11T08:06:46.130Z,-2135.06
2022-12-11T08:09:20.706Z,-1879.06
2022-12-11T08:11:51.734Z,-1879.06
2022-12-11T08:14:19.407Z,-1879.06
2022-12-11T08:16:45.734Z,-1879.06
2022-12-11T08:19:12.930Z,-2135.06
2022-12-11T08:21:40.369Z,-1879.06
2022-12-11T08:24:07.761Z,-1879.06
2022-12-11T08:26:34.104Z,-1623.06
2022-12-11T08:29:01.048Z,-1623.06
2022-12-11T08:31:28.255Z,-1879.06
2022-12-11T08:33:56.495Z,-1623.06
2022-12-11T08:36:23.987Z,-1879.06
2022-12-11T08:38:51.700Z,-1879.06
2022-12-11T08:41:25.597Z,-1879.06
2022-12-11T08:43:55.232Z,-1623.06
2022-12-11T08:46:24.391Z,-1879.06
2022-12-11T08:48:51.093Z,-2135.06
2022-12-11T08:51:22.745Z,-2391.03
2022-12-11T08:53:50.375Z,-2135.06
2022-12-11T08:56:18.461Z,-2391.03
2022-12-11T08:58:46.088Z,-2391.03
2022-12-11T09:01:18.852Z,-2902.97
2022-12-11T09:03:45.464Z,-2902.97
2022-12-11T09:06:14.928Z,-2902.97
2022-12-11T09:08:46.013Z,-2902.97
2022-12-11T09:11:23.971Z,-2902.97
2022-12-11T09:13:50.553Z,-2902.97
2022-12-11T09:16:19.246Z,-2647.00
2022-12-11T09:18:48.290Z,-2647.00
2022-12-11T09:21:17.179Z,-2902.97
2022-12-11T09:23:44.611Z,-2391.03
2022-12-11T09:26:14.329Z,-2391.03
2022-12-11T09:28:46.188Z,-2391.03
2022-12-11T09:31:13.570Z,-2647.00
2022-12-11T09:33:40.025Z,-2391.03
2022-12-11T09:36:07.031Z,-2391.03
2022-12-11T09:38:33.801Z,-2135.06
2022-12-11T09:41:01.039Z,-2135.06
2022-12-11T09:43:30.521Z,-2135.06
2022-12-11T09:45:58.463Z,-2135.06
2022-12-11T09:48:26.388Z,-1623.06
2022-12-11T09:50:55.137Z,-1623.06
2022-12-11T09:53:34.808Z,-1879.06
2022-12-11T09:56:17.951Z,-1879.06
2022-12-11T09:59:14.957Z,-2135.06
2022-12-11T10:01:54.502Z,-1879.06
2022-12-11T10:04:33.222Z,-1110.97
2022-12-11T10:07:07.226Z,-854.91
2022-12-11T10:09:51.979Z,-854.91
2022-12-11T10:12:28.804Z,-86.59
2022-12-11T10:15:21.396Z,169.53
2022-12-11T10:17:48.241Z,681.84
2022-12-11T10:20:33.616Z,425.69
2022-12-11T10:23:00.075Z,169.53
2022-12-11T10:25:32.552Z,1194.22
2022-12-11T10:28:00.542Z,1450.44
2022-12-11T10:30:36.963Z,1962.94
2022-12-11T10:33:18.426Z,1962.94
2022-12-11T10:35:56.904Z,2988.13
2022-12-11T10:38:38.267Z,2988.13
2022-12-11T10:41:11.649Z,3244.47
2022-12-11T10:43:44.046Z,3244.47
2022-12-11T10:46:29.981Z,2731.81
2022-12-11T10:48:59.799Z,3244.47
2022-12-11T10:51:35.054Z,3244.47
2022-12-11T10:54:29.519Z,2475.50
2022-12-11T10:56:56.692Z,2219.22
2022-12-11T10:59:29.789Z,1962.94
2022-12-11T11:01:57.762Z,2731.81
2022-12-11T11:04:33.303Z,4269.97
2022-12-11T11:07:04.573Z,5552.28
2022-12-11T11:09:36.021Z,5808.78
2022-12-11T11:12:07.952Z,5552.28
2022-12-11T11:14:34.758Z,5039.31
2022-12-11T11:17:01.376Z,4269.97
2022-12-11T11:19:33.992Z,3500.81
2022-12-11T11:22:27.685Z,2988.13
2022-12-11T11:24:57.003Z,2475.50
2022-12-11T11:27:31.325Z,2988.13
2022-12-11T11:30:02.903Z,4013.56
2022-12-11T11:32:37.005Z,4269.97
2022-12-11T11:35:25.566Z,4269.97
2022-12-11T11:38:22.179Z,4526.41
2022-12-11T11:41:07.614Z,4526.41
2022-12-11T11:43:48.873Z,3500.81
2022-12-11T11:46:23.393Z,3244.47
2022-12-11T11:49:37.658Z,2988.13
2022-12-11T11:52:15.906Z,3500.81
2022-12-11T11:54:51.298Z,3500.81
2022-12-11T11:57:45.348Z,3757.19
2022-12-11T12:00:20.775Z,3757.19
2022-12-11T12:02:51.406Z,4526.41
2022-12-11T12:05:26.481Z,4526.41
2022-12-11T12:08:22.828Z,5295.78
2022-12-11T12:11:04.580Z,7091.56
2022-12-11T12:13:55.779Z,7348.19
2022-12-11T12:16:53.808Z,7861.47
2022-12-11T12:19:46.140Z,9658.44
2022-12-11T12:22:38.416Z,10942.53
2022-12-11T12:25:34.152Z,10942.53
2022-12-11T12:28:35.961Z,9401.69
2022-12-11T12:31:08.304Z,7861.47
2022-12-11T12:33:58.216Z,7861.47
2022-12-11T12:36:31.703Z,10172.03
2022-12-11T12:39:02.360Z,10942.53
2022-12-11T12:41:41.733Z,11199.38
2022-12-11T12:44:16.047Z,10685.69
2022-12-11T12:46:54.512Z,11970.09
2022-12-11T12:49:30.291Z,13254.94
2022-12-11T12:51:57.844Z,14540.19
2022-12-11T12:54:28.029Z,15568.72
2022-12-11T12:56:55.702Z,14540.19
2022-12-11T12:59:23.606Z,13511.94
2022-12-11T13:01:55.211Z,13511.94
2022-12-11T13:04:55.010Z,13768.97
2022-12-11T13:07:28.373Z,13254.94
2022-12-11T13:10:22.695Z,14283.09
2022-12-11T13:12:49.392Z,13768.97
2022-12-11T13:15:31.635Z,15568.72
2022-12-11T13:17:59.534Z,14283.09
2022-12-11T13:20:28.681Z,13768.97
2022-12-11T13:23:07.061Z,13511.94
2022-12-11T13:25:51.671Z,13254.94
2022-12-11T13:28:23.069Z,14026.03
2022-12-11T13:31:02.139Z,14026.03
2022-12-11T13:33:30.511Z,13768.97
2022-12-11T13:36:24.996Z,13511.94
2022-12-11T13:39:19.389Z,12740.94
2022-12-11T13:41:51.604Z,14026.03
2022-12-11T13:44:41.310Z,13254.94
2022-12-11T13:47:13.949Z,12740.94
2022-12-11T13:49:43.222Z,12740.94
2022-12-11T13:52:21.860Z,14026.03
2022-12-11T13:54:50.757Z,14540.19
2022-12-11T13:57:28.720Z,13511.94
2022-12-11T13:59:56.965Z,14283.09
2022-12-11T14:02:44.563Z,15568.72
2022-12-11T14:05:12.947Z,15825.88
2022-12-11T14:08:02.345Z,15568.72
2022-12-11T14:10:32.416Z,15568.72
2022-12-11T14:13:01.700Z,14797.31
2022-12-11T14:15:31.257Z,13511.94
2022-12-11T14:17:59.079Z,14540.19
2022-12-11T14:20:29.884Z,14797.31
2022-12-11T14:23:15.503Z,14797.31
2022-12-11T14:25:42.160Z,14797.31
2022-12-11T14:28:18.123Z,15568.72
2022-12-11T14:30:51.001Z,15311.56
2022-12-11T14:33:21.905Z,14283.09
2022-12-11T14:35:50.619Z,14026.03
2022-12-11T14:38:22.949Z,14797.31
2022-12-11T14:40:56.488Z,14797.31
2022-12-11T14:43:38.831Z,14797.31
2022-12-11T14:46:16.560Z,15054.41
2022-12-11T14:49:01.328Z,14797.31
2022-12-11T14:51:31.288Z,15054.41
2022-12-11T14:53:58.139Z,15568.72
2022-12-11T14:56:28.056Z,14797.31
2022-12-11T14:59:05.046Z,13768.97
2022-12-11T15:01:34.454Z,13511.94
2022-12-11T15:04:05.684Z,13254.94
2022-12-11T15:06:35.629Z,14540.19
2022-12-11T15:09:18.460Z,15311.56
2022-12-11T15:11:46.157Z,13768.97
2022-12-11T15:14:13.689Z,13511.94
2022-12-11T15:16:42.599Z,12740.94
2022-12-11T15:19:19.072Z,12227.03
2022-12-11T15:21:46.024Z,11970.09
2022-12-11T15:24:27.984Z,11456.28
2022-12-11T15:26:58.472Z,11970.09
2022-12-11T15:29:39.713Z,11970.09
2022-12-11T15:32:09.157Z,12740.94
2022-12-11T15:34:46.686Z,12740.94
2022-12-11T15:37:22.140Z,11970.09
2022-12-11T15:39:48.645Z,12740.94
2022-12-11T15:42:21.644Z,12740.94
2022-12-11T15:44:48.191Z,12997.94
2022-12-11T15:47:16.159Z,13768.97
2022-12-11T15:49:42.564Z,13511.94
2022-12-11T15:52:08.936Z,12997.94
2022-12-11T15:54:35.353Z,12997.94
2022-12-11T15:57:05.514Z,13768.97
2022-12-11T15:59:33.096Z,14026.03
2022-12-11T16:01:59.476Z,14540.19
2022-12-11T16:04:25.812Z,14540.19
2022-12-11T16:06:52.337Z,14540.19
2022-12-11T16:09:18.695Z,14026.03
2022-12-11T16:11:45.115Z,13511.94
2022-12-11T16:14:11.562Z,13511.94
2022-12-11T16:16:37.976Z,13511.94
2022-12-11T16:19:04.434Z,14540.19
2022-12-11T16:21:30.837Z,15311.56
2022-12-11T16:23:57.337Z,16340.28
2022-12-11T16:26:23.767Z,15568.72
2022-12-11T16:28:50.389Z,16340.28
2022-12-11T16:31:17.127Z,16083.06
2022-12-11T16:33:43.919Z,16083.06
2022-12-11T16:36:15.608Z,16083.06
2022-12-11T16:38:49.905Z,16340.28
2022-12-11T16:41:19.694Z,16340.28
2022-12-11T16:43:46.142Z,16597.50
2022-12-11T16:46:12.644Z,15311.56
2022-12-11T16:48:39.126Z,14797.31
2022-12-11T16:51:05.944Z,15311.56
2022-12-11T16:53:32.477Z,15311.56
2022-12-11T16:55:59.012Z,15825.88
2022-12-11T16:58:25.422Z,15311.56
2022-12-11T17:00:51.891Z,14540.19
2022-12-11T17:03:19.467Z,14540.19
2022-12-11T17:05:45.891Z,14283.09
2022-12-11T17:08:12.512Z,13254.94
2022-12-11T17:10:41.354Z,14026.03
2022-12-11T17:13:07.871Z,15054.41
2022-12-11T17:15:34.410Z,14540.19
2022-12-11T17:18:00.931Z,14026.03
2022-12-11T17:20:27.437Z,15054.41
2022-12-11T17:22:53.879Z,14283.09
2022-12-11T17:25:22.371Z,14797.31
2022-12-11T17:27:49.451Z,15311.56
2022-12-11T17:30:16.539Z,16340.28
2022-12-11T17:32:43.014Z,17883.88
2022-12-11T17:35:09.968Z,16340.28
2022-12-11T17:37:36.570Z,17112.00
2022-12-11T17:40:03.375Z,16854.75
2022-12-11T17:42:29.824Z,16597.50
2022-12-11T17:44:56.292Z,17369.28
2022-12-11T17:47:23.826Z,17369.28
2022-12-11T17:49:50.479Z,17626.56
2022-12-11T17:52:16.872Z,17883.88
2022-12-11T17:54:43.293Z,17883.88
2022-12-11T17:57:09.818Z,17883.88
2022-12-11T17:59:36.308Z,17626.56
2022-12-11T18:02:02.941Z,17112.00
2022-12-11T18:04:29.421Z,18398.53
2022-12-11T18:06:55.963Z,19942.97
2022-12-11T18:09:22.472Z,19170.69
2022-12-11T18:11:48.986Z,18141.22
2022-12-11T18:14:17.483Z,18398.53
2022-12-11T18:16:44.652Z,17369.28
2022-12-11T18:19:11.241Z,18655.91
2022-12-11T18:21:42.651Z,20972.91
2022-12-11T18:24:09.845Z,22003.13
2022-12-11T18:26:37.479Z,22260.72
2022-12-11T18:29:03.907Z,25381.44
2022-12-11T18:31:30.462Z,25641.28
2022-12-11T18:33:57.139Z,25321.00
2022-12-11T18:36:23.567Z,24205.34
2022-12-11T18:38:50.237Z,23291.28
2022-12-11T18:41:18.169Z,19428.09
2022-12-11T18:43:44.855Z,19685.50
2022-12-11T18:46:14.383Z,25260.59
2022-12-11T18:48:42.492Z,28145.84
2022-12-11T18:51:11.489Z,29020.72
2022-12-11T18:53:41.816Z,30450.34
2022-12-11T18:56:12.779Z,29839.31
2022-12-11T18:58:39.548Z,29704.19
2022-12-11T19:01:24.743Z,30476.56
2022-12-11T19:03:58.825Z,30228.50
2022-12-11T19:06:30.296Z,30684.28
2022-12-11T19:08:57.327Z,30462.44
2022-12-11T19:11:26.682Z,29675.97
2022-12-11T19:13:54.847Z,30032.88
2022-12-11T19:16:24.994Z,29268.69
2022-12-11T19:18:51.722Z,27791.13
2022-12-11T19:21:18.989Z,27351.78
2022-12-11T19:23:45.954Z,28234.53
2022-12-11T19:26:21.352Z,27158.31
2022-12-11T19:28:49.326Z,27126.09
2022-12-11T19:31:19.149Z,26058.25
2022-12-11T19:33:48.753Z,23806.69
2022-12-11T19:36:23.975Z,25373.38
2022-12-11T19:38:51.463Z,27178.47
2022-12-11T19:41:28.858Z,28504.63
2022-12-11T19:43:56.921Z,28984.41
2022-12-11T19:46:24.916Z,28520.75
2022-12-11T19:48:54.133Z,27053.53
2022-12-11T19:51:23.638Z,26545.78
2022-12-11T19:53:50.493Z,26213.38
2022-12-11T19:56:18.912Z,27033.41
2022-12-11T19:58:45.569Z,29290.88
2022-12-11T20:01:24.782Z,29613.47
2022-12-11T20:03:52.621Z,29163.84
2022-12-11T20:06:19.753Z,28121.66
2022-12-11T20:08:46.724Z,26513.56
2022-12-11T20:11:18.319Z,28153.91
2022-12-11T20:13:46.340Z,28657.84
2022-12-11T20:16:13.500Z,29496.53
2022-12-11T20:18:40.060Z,29573.13
2022-12-11T20:21:09.124Z,29012.63
2022-12-11T20:23:36.380Z,28508.66
2022-12-11T20:26:11.856Z,27186.53
2022-12-11T20:28:38.462Z,28391.75
2022-12-11T20:31:16.445Z,28548.97
2022-12-11T20:33:46.915Z,28700.16
2022-12-11T20:36:15.364Z,28415.94
2022-12-11T20:38:42.073Z,28482.47
2022-12-11T20:41:11.322Z,27571.44
2022-12-11T20:43:38.855Z,27952.34
2022-12-11T20:46:10.479Z,28415.94
2022-12-11T20:48:38.354Z,27609.72
2022-12-11T20:51:06.490Z,28032.97
2022-12-11T20:53:34.909Z,28347.41
2022-12-11T20:56:02.030Z,28073.28
2022-12-11T20:58:28.463Z,29311.03
2022-12-11T21:00:54.971Z,28242.59
2022-12-11T21:03:21.438Z,28899.75
2022-12-11T21:05:47.911Z,28726.38
2022-12-11T21:08:14.394Z,28752.59
2022-12-11T21:10:42.155Z,30149.84
2022-12-11T21:13:08.498Z,29915.94
2022-12-11T21:15:36.424Z,30165.97
2022-12-11T21:18:03.022Z,30234.56
2022-12-11T21:20:29.486Z,26533.69
2022-12-11T21:22:57.555Z,28389.72
2022-12-11T21:25:24.944Z,28946.13
2022-12-11T21:27:51.827Z,29153.75
2022-12-11T21:30:18.875Z,28147.84
2022-12-11T21:32:45.528Z,27158.31
2022-12-11T21:35:12.724Z,25385.47
2022-12-11T21:37:41.679Z,25391.50
2022-12-11T21:40:09.657Z,22518.34
2022-12-11T21:42:36.114Z,22260.72
2022-12-11T21:47:49.681Z,21745.56
2022-12-11T21:50:16.636Z,20200.41
2022-12-11T21:52:43.301Z,22003.13
2022-12-11T21:55:11.859Z,22775.97
2022-12-11T21:57:38.525Z,22518.34
2022-12-11T22:00:06.456Z,25443.88
2022-12-11T22:02:37.450Z,26108.63
2022-12-11T22:05:07.488Z,27466.66
2022-12-11T22:07:33.917Z,27549.28
2022-12-11T22:10:00.338Z,26070.34
2022-12-11T22:12:28.288Z,23806.69
2022-12-11T22:14:54.832Z,21488.00
2022-12-11T22:17:21.545Z,22260.72
2022-12-11T22:19:48.075Z,24201.31
2022-12-11T22:22:14.599Z,25647.31
2022-12-11T22:24:41.256Z,23548.97
2022-12-11T22:27:07.758Z,22003.13
2022-12-11T22:29:34.837Z,23291.28
2022-12-11T22:32:01.936Z,24809.44
2022-12-11T22:34:28.412Z,23033.63
2022-12-11T22:36:55.056Z,21488.00
2022-12-11T22:39:21.692Z,22260.72
2022-12-11T22:41:48.226Z,26469.22
2022-12-11T22:44:17.135Z,27678.25
2022-12-11T22:46:49.708Z,26630.41
2022-12-11T22:49:17.752Z,26229.50
2022-12-11T22:51:44.223Z,26279.84
2022-12-11T22:54:10.721Z,25707.75
2022-12-11T22:56:37.166Z,23818.75
2022-12-11T22:59:03.663Z,23291.28
2022-12-11T23:01:30.205Z,22775.97
2022-12-11T23:03:56.649Z,25123.63
2022-12-11T23:06:24.799Z,25550.63
2022-12-11T23:08:55.058Z,24414.75
2022-12-11T23:11:27.541Z,24821.53
2022-12-11T23:13:55.199Z,23873.13
2022-12-11T23:16:22.217Z,21488.00
2022-12-11T23:18:48.681Z,21745.56
2022-12-11T23:21:15.239Z,22260.72
2022-12-11T23:23:41.711Z,22003.13
2022-12-11T23:26:10.961Z,22003.13
2022-12-11T23:28:37.528Z,18913.28
2022-12-11T23:31:04.515Z,17626.56
2022-12-11T23:33:31.050Z,18398.53
2022-12-11T23:35:58.564Z,17883.88
2022-12-11T23:38:25.283Z,18141.22
2022-12-11T23:40:52.419Z,18655.91
2022-12-11T23:43:19.114Z,18655.91
2022-12-11T23:45:46.522Z,19942.97
2022-12-11T23:48:13.625Z,21230.44
2022-12-11T23:50:42.388Z,22260.72
2022-12-11T23:53:09.711Z,20457.91
2022-12-11T23:55:39.288Z,21488.00
2022-12-11T23:58:05.961Z,23033.63
